Time;durP1;ratioP1;P1;durP2;ratioP2;P2;SDS_P1;SDS_P2;PMS_P1;PMS_P2;Temp;Humidity;BMP_temperature;BMP_pressure;BME280_temperature;BME280_humidity;BME280_pressure;Samples;Min_cycle;Max_cycle;Signal;HPM_P1;HPM_P2
2022/08/21 00:01:18;;;;;;;35.50;7.28;;;;;;;23.75;100.00;99254.91;1830262;78;21043;-74
2022/08/21 00:03:48;;;;;;;29.85;7.47;;;;;;;23.75;100.00;99252.88;1830117;78;20895;-73
2022/08/21 00:06:16;;;;;;;31.35;6.40;;;;;;;23.72;100.00;99250.91;1830240;78;20954;-73
2022/08/21 00:08:44;;;;;;;31.40;7.80;;;;;;;23.69;100.00;99263.00;1830195;78;21507;-71
2022/08/21 00:11:11;;;;;;;29.02;7.33;;;;;;;23.69;100.00;99264.40;1830265;78;20867;-71
2022/08/21 00:13:41;;;;;;;29.80;6.62;;;;;;;23.68;100.00;99262.19;1830345;78;21131;-72
2022/08/21 00:16:09;;;;;;;26.45;6.67;;;;;;;23.61;100.00;99259.44;1830106;78;20927;-73
2022/08/21 00:18:36;;;;;;;19.30;6.10;;;;;;;23.63;100.00;99257.64;1830274;78;20982;-72
2022/08/21 00:21:05;;;;;;;26.20;6.87;;;;;;;23.61;100.00;99252.41;1830166;78;20919;-72
2022/08/21 00:23:34;;;;;;;32.42;7.60;;;;;;;23.62;100.00;99250.41;1830183;78;20891;-73
2022/08/21 00:26:00;;;;;;;30.72;7.40;;;;;;;23.55;100.00;99257.70;1830730;78;21118;-72
2022/08/21 00:28:27;;;;;;;24.32;6.33;;;;;;;23.54;100.00;99260.30;1830255;78;20816;-70
2022/08/21 00:30:54;;;;;;;31.75;7.33;;;;;;;23.54;100.00;99264.52;1830152;78;20993;-73
2022/08/21 00:33:20;;;;;;;31.73;8.70;;;;;;;23.55;100.00;99269.55;1830229;78;20903;-72
2022/08/21 00:35:48;;;;;;;22.27;6.35;;;;;;;23.53;100.00;99268.56;1830408;78;20923;-72
2022/08/21 00:38:16;;;;;;;29.07;6.55;;;;;;;23.49;100.00;99265.59;1830145;78;21079;-71
2022/08/21 00:40:52;;;;;;;31.68;7.05;;;;;;;23.46;100.00;99267.21;1830224;78;20950;-73
2022/08/21 00:43:22;;;;;;;30.48;6.55;;;;;;;23.45;100.00;99265.62;1830488;78;20931;-74
2022/08/21 00:45:50;;;;;;;34.53;7.37;;;;;;;23.43;100.00;99266.04;1830062;78;20924;-72
2022/08/21 00:48:19;;;;;;;25.65;6.45;;;;;;;23.40;100.00;99261.83;1830670;78;20946;-74
2022/08/21 00:51:04;;;;;;;26.60;6.92;;;;;;;23.37;100.00;99262.06;1830225;78;22096;-74
2022/08/21 00:53:31;;;;;;;18.52;6.08;;;;;;;23.37;100.00;99272.50;1806103;78;20931;-74
2022/08/21 00:55:59;;;;;;;29.45;6.45;;;;;;;23.34;100.00;99274.91;1797587;79;20914;-73
2022/08/21 00:58:30;;;;;;;36.77;6.83;;;;;;;23.33;100.00;99276.14;1797590;79;21065;-73
2022/08/21 01:00:58;;;;;;;26.95;7.45;;;;;;;23.34;100.00;99271.30;1770674;79;20997;-73
2022/08/21 01:03:27;;;;;;;22.52;6.25;;;;;;;23.35;100.00;99280.72;1797906;79;21100;-74
2022/08/21 01:05:54;;;;;;;27.85;6.62;;;;;;;23.37;100.00;99283.73;1797480;79;20966;-74
2022/08/21 01:08:20;;;;;;;27.25;6.97;;;;;;;23.34;100.00;99281.94;1797565;79;20910;-75
2022/08/21 01:10:47;;;;;;;37.53;7.08;;;;;;;23.37;100.00;99285.95;1797563;79;21252;-69
2022/08/21 01:13:16;;;;;;;36.03;6.80;;;;;;;23.39;100.00;99282.72;1797466;79;20922;-72
2022/08/21 01:15:45;;;;;;;22.02;6.22;;;;;;;23.40;100.00;99287.12;1797844;79;21111;-70
2022/08/21 01:18:13;;;;;;;40.90;7.40;;;;;;;23.43;100.00;99282.91;1797679;79;20955;-73
2022/08/21 01:21:05;;;;;;;28.60;6.40;;;;;;;23.44;100.00;99276.69;1797502;79;20966;-74
2022/08/21 01:23:34;;;;;;;18.02;5.92;;;;;;;23.43;100.00;99284.31;1776049;79;20914;-73
2022/08/21 01:26:02;;;;;;;24.77;6.47;;;;;;;23.47;100.00;99284.28;1797572;79;20943;-74
2022/08/21 01:28:31;;;;;;;28.87;6.20;;;;;;;23.45;100.00;99274.86;1797475;79;21136;-74
2022/08/21 01:30:57;;;;;;;35.80;7.45;;;;;;;23.47;100.00;99275.85;1797463;79;20982;-73
2022/08/21 01:33:25;;;;;;;33.50;6.87;;;;;;;23.46;100.00;99272.83;1797736;79;20991;-69
2022/08/21 01:35:54;;;;;;;27.52;6.70;;;;;;;23.44;100.00;99273.88;1797437;79;20918;-72
2022/08/21 01:38:21;;;;;;;29.92;7.60;;;;;;;23.42;100.00;99271.45;1797508;79;20859;-73
2022/08/21 01:40:52;;;;;;;27.95;5.37;;;;;;;23.43;100.00;99263.83;1796035;79;20911;-71
2022/08/21 01:43:18;;;;;;;25.02;5.85;;;;;;;23.40;100.00;99276.71;1797587;79;21388;-74
2022/08/21 01:45:45;;;;;;;28.73;6.22;;;;;;;23.39;100.00;99279.91;1797543;79;21029;-72
2022/08/21 01:48:11;;;;;;;26.62;5.90;;;;;;;23.39;100.00;99286.31;1797620;79;20910;-73
2022/08/21 01:50:39;;;;;;;32.78;6.95;;;;;;;23.39;100.00;99282.72;1797521;79;20985;-72
2022/08/21 01:53:06;;;;;;;28.40;6.17;;;;;;;23.41;100.00;99280.30;1797744;78;21464;-73
2022/08/21 01:55:33;;;;;;;20.90;6.20;;;;;;;23.41;100.00;99278.90;1797302;79;21474;-70
2022/08/21 01:58:00;;;;;;;26.60;6.75;;;;;;;23.43;100.00;99280.69;1797449;79;21467;-73
2022/08/21 02:00:26;;;;;;;23.05;7.00;;;;;;;23.41;100.00;99264.84;1797837;79;21458;-74
2022/08/21 02:02:56;;;;;;;32.42;6.47;;;;;;;23.42;100.00;99269.27;1797512;79;20982;-74
2022/08/21 02:05:23;;;;;;;27.98;6.37;;;;;;;23.40;100.00;99268.85;1797477;79;21076;-71
2022/08/21 02:07:51;;;;;;;27.62;6.33;;;;;;;23.42;100.00;99266.46;1797604;79;20899;-72
2022/08/21 02:10:23;;;;;;;34.05;6.65;;;;;;;23.43;100.00;99259.61;1797513;79;20927;-73
2022/08/21 02:12:51;;;;;;;32.53;7.20;;;;;;;23.43;100.00;99256.80;1797631;79;20902;-73
2022/08/21 02:15:18;;;;;;;25.85;7.30;;;;;;;23.42;100.00;99255.22;1797675;79;21176;-73
2022/08/21 02:17:49;;;;;;;22.67;6.72;;;;;;;23.45;100.00;99255.19;1770760;79;21187;-71
2022/08/21 02:20:24;;;;;;;37.83;8.00;;;;;;;23.43;100.00;99257.61;1797448;79;20915;-72
2022/08/21 02:22:55;;;;;;;29.37;7.17;;;;;;;23.42;100.00;99249.59;1797650;79;20888;-71
2022/08/21 02:25:28;;;;;;;22.80;5.80;;;;;;;23.45;100.00;99257.19;1797627;79;20903;-73
2022/08/21 02:27:55;;;;;;;25.70;6.75;;;;;;;23.46;100.00;99258.78;1797436;79;21474;-74
2022/08/21 02:30:29;;;;;;;25.40;6.53;;;;;;;23.47;100.00;99251.96;1797666;79;21393;-73
2022/08/21 02:32:55;;;;;;;28.25;6.03;;;;;;;23.51;100.00;99254.11;1797382;79;20966;-73
2022/08/21 02:35:22;;;;;;;31.82;7.15;;;;;;;23.53;100.00;99253.70;1797500;79;20911;-73
2022/08/21 02:37:57;;;;;;;25.77;6.78;;;;;;;23.51;100.00;99246.31;1797328;79;20866;-73
2022/08/21 02:40:28;;;;;;;22.80;6.22;;;;;;;23.48;100.00;99242.30;1797574;79;21529;-74
2022/08/21 02:42:55;;;;;;;26.02;6.95;;;;;;;23.52;100.00;99243.67;1797559;79;21130;-74
2022/08/21 02:45:24;;;;;;;30.02;5.95;;;;;;;23.49;100.00;99237.48;1797514;79;20954;-73
2022/08/21 02:47:54;;;;;;;26.95;7.47;;;;;;;23.54;100.00;99239.85;1797551;79;20902;-72
2022/08/21 02:50:26;;;;;;;24.75;5.58;;;;;;;23.49;100.00;99241.08;1797600;79;20922;-69
2022/08/21 02:52:53;;;;;;;18.95;5.72;;;;;;;23.47;100.00;99237.91;1796580;78;21002;-71
2022/08/21 02:55:21;;;;;;;30.82;6.47;;;;;;;23.51;100.00;99230.22;1797388;79;21134;-73
2022/08/21 02:57:48;;;;;;;28.92;7.15;;;;;;;23.55;100.00;99233.81;1797413;79;20894;-72
2022/08/21 03:00:15;;;;;;;24.50;6.35;;;;;;;23.57;100.00;99239.02;1771093;79;20911;-74
2022/08/21 03:02:42;;;;;;;25.65;6.70;;;;;;;23.56;100.00;99243.83;1797607;79;20995;-73
2022/08/21 03:05:09;;;;;;;16.52;5.62;;;;;;;23.55;100.00;99249.88;1797489;79;20890;-71
2022/08/21 03:07:39;;;;;;;28.00;5.78;;;;;;;23.54;100.00;99254.69;1797477;79;21242;-73
2022/08/21 03:10:06;;;;;;;31.37;5.70;;;;;;;23.54;100.00;99254.69;1797718;79;21463;-72
2022/08/21 03:12:35;;;;;;;26.55;6.97;;;;;;;23.54;100.00;99259.53;1797447;79;21499;-73
2022/08/21 03:15:06;;;;;;;25.48;5.75;;;;;;;23.53;100.00;99257.91;1797466;79;21021;-72
2022/08/21 03:17:33;;;;;;;21.50;5.03;;;;;;;23.52;100.00;99256.33;1797756;79;21009;-74
2022/08/21 03:20:00;;;;;;;32.25;6.67;;;;;;;23.49;100.00;99255.76;1797459;78;21231;-73
2022/08/21 03:22:30;;;;;;;21.87;5.70;;;;;;;23.48;100.00;99258.36;1797479;79;21019;-72
2022/08/21 03:24:59;;;;;;;30.75;6.00;;;;;;;23.45;100.00;99250.16;1797323;79;21543;-74
2022/08/21 03:27:27;;;;;;;33.42;6.55;;;;;;;23.46;100.00;99251.16;1797503;79;20902;-74
2022/08/21 03:29:55;;;;;;;32.03;6.12;;;;;;;23.46;100.00;99250.34;1797479;79;20930;-69
2022/08/21 03:32:22;;;;;;;24.70;5.55;;;;;;;23.46;100.00;99250.34;1797623;79;21236;-65
2022/08/21 03:34:49;;;;;;;27.35;6.50;;;;;;;23.45;100.00;99255.79;1771157;79;20927;-73
2022/08/21 03:37:17;;;;;;;34.65;8.55;;;;;;;23.43;100.00;99258.20;1797679;79;21480;-73
2022/08/21 03:39:44;;;;;;;28.60;5.80;;;;;;;23.40;100.00;99260.42;1797602;79;20923;-71
2022/08/21 03:42:12;;;;;;;22.22;5.53;;;;;;;23.41;100.00;99272.67;1797967;79;20863;-73
2022/08/21 03:44:39;;;;;;;28.23;5.28;;;;;;;23.44;100.00;99271.06;1797688;79;21260;-73
2022/08/21 03:47:05;;;;;;;28.92;6.15;;;;;;;23.42;100.00;99263.02;1771338;79;21444;-73
2022/08/21 03:49:33;;;;;;;32.17;6.05;;;;;;;23.42;100.00;99263.65;1797625;79;20883;-73
2022/08/21 03:52:00;;;;;;;19.27;5.45;;;;;;;23.40;100.00;99273.06;1797571;78;20918;-72
2022/08/21 03:54:29;;;;;;;24.02;5.03;;;;;;;23.37;100.00;99271.89;1797642;79;20979;-73
2022/08/21 03:56:56;;;;;;;30.72;6.15;;;;;;;23.37;100.00;99261.25;1797633;79;21308;-73
2022/08/21 03:59:22;;;;;;;25.27;4.87;;;;;;;23.32;100.00;99256.26;1797751;79;21542;-73
2022/08/21 04:02:00;;;;;;;26.70;5.87;;;;;;;23.28;100.00;99259.72;1797839;79;20835;-73
2022/08/21 04:04:27;;;;;;;28.87;5.72;;;;;;;23.29;100.00;99260.50;1797685;79;20911;-73
2022/08/21 04:06:55;;;;;;;30.30;5.90;;;;;;;23.27;100.00;99258.73;1797663;79;21058;-71
2022/08/21 04:09:23;;;;;;;24.77;5.42;;;;;;;23.25;100.00;99266.77;1797625;79;21165;-71
2022/08/21 04:11:50;;;;;;;28.25;5.83;;;;;;;23.21;100.00;99273.22;1797473;79;21017;-71
2022/08/21 04:14:18;;;;;;;29.95;5.58;;;;;;;23.23;100.00;99279.83;1797736;79;20907;-72
2022/08/21 04:16:45;;;;;;;28.20;5.45;;;;;;;23.25;100.00;99279.41;1797596;79;21034;-73
2022/08/21 04:19:13;;;;;;;31.48;6.80;;;;;;;23.25;100.00;99273.80;1797611;79;20982;-73
2022/08/21 04:21:40;;;;;;;26.12;5.90;;;;;;;23.29;100.00;99278.16;1797561;79;21183;-73
2022/08/21 04:24:10;;;;;;;28.38;6.08;;;;;;;23.32;100.00;99287.17;1797593;79;21459;-73
2022/08/21 04:26:39;;;;;;;34.15;5.12;;;;;;;23.35;100.00;99293.36;1797663;79;20946;-74
2022/08/21 04:29:06;;;;;;;25.92;5.53;;;;;;;23.37;100.00;99289.36;1797683;79;20958;-73
2022/08/21 04:31:36;;;;;;;23.18;5.05;;;;;;;23.38;100.00;99287.53;1797575;79;20934;-72
2022/08/21 04:34:04;;;;;;;24.57;5.67;;;;;;;23.41;100.00;99284.52;1797655;79;21116;-73
2022/08/21 04:36:32;;;;;;;30.60;5.70;;;;;;;23.43;100.00;99283.50;1797499;79;20863;-73
2022/08/21 04:39:01;;;;;;;36.98;6.28;;;;;;;23.46;100.00;99278.45;1797611;79;20867;-73
2022/08/21 04:41:30;;;;;;;33.58;6.20;;;;;;;23.49;100.00;99274.80;1771149;79;20903;-70
2022/08/21 04:44:00;;;;;;;33.48;5.70;;;;;;;23.52;100.00;99273.19;1797556;79;21491;-72
2022/08/21 04:46:27;;;;;;;34.88;5.53;;;;;;;23.57;100.00;99273.55;1797595;79;21236;-74
2022/08/21 04:48:53;;;;;;;27.95;6.22;;;;;;;23.59;100.00;99275.31;1797589;79;21062;-74
2022/08/21 04:51:25;;;;;;;21.50;4.70;;;;;;;23.63;100.00;99277.33;1797618;78;21396;-73
2022/08/21 04:54:11;;;;;;;30.50;5.12;;;;;;;23.60;100.00;99273.31;1797317;79;20887;-73
2022/08/21 04:56:50;;;;;;;39.10;7.12;;;;;;;23.56;100.00;99269.75;1797611;79;21523;-73
2022/08/21 04:59:29;;;;;;;24.23;4.97;;;;;;;23.62;100.00;99273.70;1797567;79;21121;-71
2022/08/21 05:01:56;;;;;;;29.12;5.10;;;;;;;23.61;100.00;99276.30;1797644;79;20886;-73
2022/08/21 05:04:26;;;;;;;37.90;5.22;;;;;;;23.61;100.00;99272.09;1797520;79;20914;-72
2022/08/21 05:06:54;;;;;;;33.80;7.03;;;;;;;23.65;100.00;99273.47;1798019;79;20910;-73
2022/08/21 05:09:23;;;;;;;24.80;5.78;;;;;;;23.71;100.00;99257.13;1797576;79;21435;-74
2022/08/21 05:11:51;;;;;;;27.15;5.42;;;;;;;23.72;100.00;99264.97;1797573;79;21014;-72
2022/08/21 05:14:19;;;;;;;24.67;4.78;;;;;;;23.71;100.00;99264.79;1797506;79;20855;-74
2022/08/21 05:16:47;;;;;;;32.30;6.12;;;;;;;23.71;100.00;99266.97;1797525;79;20906;-74
2022/08/21 05:19:16;;;;;;;29.67;6.15;;;;;;;23.71;100.00;99264.16;1797458;79;20942;-73
2022/08/21 05:21:45;;;;;;;30.88;5.97;;;;;;;23.68;100.00;99265.00;1797519;79;20945;-74
2022/08/21 05:24:13;;;;;;;29.57;5.65;;;;;;;23.74;100.00;99259.73;1797513;79;21212;-74
2022/08/21 05:26:41;;;;;;;30.50;6.15;;;;;;;23.76;100.00;99259.31;1797555;79;20939;-74
2022/08/21 05:29:08;;;;;;;21.25;5.20;;;;;;;23.75;100.00;99261.31;1797648;79;20958;-74
2022/08/21 05:31:35;;;;;;;30.68;4.72;;;;;;;23.79;100.00;99255.06;1797506;79;21002;-75
2022/08/21 05:34:05;;;;;;;29.45;5.65;;;;;;;23.84;100.00;99252.39;1797645;79;21447;-72
2022/08/21 05:36:31;;;;;;;34.65;7.33;;;;;;;23.90;100.00;99259.78;1797605;79;21408;-74
2022/08/21 05:38:58;;;;;;;33.05;5.55;;;;;;;23.95;100.00;99257.91;1797804;79;20998;-73
2022/08/21 05:41:24;;;;;;;33.28;6.70;;;;;;;23.99;100.00;99254.44;1797511;79;21034;-74
2022/08/21 05:43:54;;;;;;;33.48;5.67;;;;;;;24.05;100.00;99262.59;1771101;79;20946;-73
2022/08/21 05:46:20;;;;;;;21.55;5.03;;;;;;;24.12;100.00;99255.31;1797985;79;20965;-77
2022/08/21 05:48:47;;;;;;;35.68;6.85;;;;;;;24.16;100.00;99257.45;1797419;79;21245;-72
2022/08/21 05:51:14;;;;;;;35.48;6.55;;;;;;;24.23;100.00;99255.19;1797383;78;20981;-75
2022/08/21 05:53:42;;;;;;;21.50;5.30;;;;;;;24.27;100.00;99256.77;1797467;79;20899;-76
2022/08/21 05:56:10;;;;;;;25.82;4.95;;;;;;;24.28;100.00;99251.91;1797600;79;20914;-73
2022/08/21 05:58:38;;;;;;;29.00;5.30;;;;;;;24.33;100.00;99254.89;1797577;79;21001;-75
2022/08/21 06:01:05;;;;;;;28.62;5.60;;;;;;;24.38;100.00;99247.39;1797612;79;21134;-71
2022/08/21 06:03:36;;;;;;;21.85;4.78;;;;;;;24.46;100.00;99257.33;1797682;79;20899;-73
2022/08/21 06:06:03;;;;;;;27.13;4.90;;;;;;;24.49;100.00;99256.48;1797582;79;21045;-71
2022/08/21 06:08:31;;;;;;;32.35;6.28;;;;;;;24.47;100.00;99256.70;1797483;79;20997;-72
2022/08/21 06:11:00;;;;;;;28.90;5.08;;;;;;;24.52;100.00;99260.45;1797584;79;20835;-73
2022/08/21 06:13:30;;;;;;;31.52;6.17;;;;;;;24.62;100.00;99260.12;1787297;79;21121;-76
2022/08/21 06:16:11;;;;;;;26.27;5.22;;;;;;;24.70;100.00;99263.05;1777889;80;21457;-74
2022/08/21 06:18:41;;;;;;;22.50;4.67;;;;;;;24.77;100.00;99255.88;1777737;80;21532;-72
2022/08/21 06:21:11;;;;;;;19.92;5.03;;;;;;;24.79;100.00;99257.67;1777751;80;20935;-76
2022/08/21 06:23:38;;;;;;;28.45;5.25;;;;;;;24.89;100.00;99249.50;1777858;80;20900;-75
2022/08/21 06:26:06;;;;;;;50.15;6.35;;;;;;;24.95;100.00;99243.59;1778015;80;21143;-73
2022/08/21 06:28:35;;;;;;;36.00;6.22;;;;;;;25.01;100.00;99247.51;1777628;80;21460;-74
2022/08/21 06:31:19;;;;;;;28.38;6.15;;;;;;;25.07;100.00;99244.21;1777897;80;20864;-73
2022/08/21 06:33:46;;;;;;;29.05;5.45;;;;;;;25.10;100.00;99241.94;1777671;80;20975;-74
2022/08/21 06:36:13;;;;;;;29.00;6.30;;;;;;;25.14;100.00;99240.69;1777881;80;21085;-76
2022/08/21 06:38:41;;;;;;;34.63;6.25;;;;;;;25.20;100.00;99243.79;1777759;80;21119;-73
2022/08/21 06:41:07;;;;;;;26.62;5.15;;;;;;;25.30;100.00;99234.19;1777899;80;20879;-74
2022/08/21 06:43:35;;;;;;;22.55;5.78;;;;;;;25.36;100.00;99240.92;1777765;80;20967;-74
2022/08/21 06:46:01;;;;;;;26.85;6.20;;;;;;;25.42;100.00;99231.37;1777834;80;21417;-75
2022/08/21 06:48:32;;;;;;;31.40;5.72;;;;;;;25.49;100.00;99237.66;1777829;80;20958;-74
2022/08/21 06:51:02;;;;;;;43.15;5.47;;;;;;;25.58;100.00;99236.30;1778032;79;21106;-75
2022/08/21 06:53:30;;;;;;;22.02;6.87;;;;;;;25.66;100.00;99234.97;1777676;80;20907;-70
2022/08/21 06:55:57;;;;;;;30.70;5.70;;;;;;;25.69;100.00;99229.88;1777742;80;20943;-73
2022/08/21 06:58:23;;;;;;;27.67;5.95;;;;;;;25.73;100.00;99234.84;1777937;80;21495;-73
2022/08/21 07:00:51;;;;;;;23.50;5.22;;;;;;;25.77;100.00;99233.37;1777832;80;20875;-76
2022/08/21 07:03:31;;;;;;;28.27;5.20;;;;;;;25.84;100.00;99239.48;1747906;80;21449;-74
2022/08/21 07:05:58;;;;;;;23.70;5.72;;;;;;;25.86;100.00;99239.86;1777891;80;21393;-73
2022/08/21 07:08:26;;;;;;;27.87;6.03;;;;;;;25.96;100.00;99240.88;1777970;80;21495;-72
2022/08/21 07:10:54;;;;;;;34.05;5.80;;;;;;;26.05;100.00;99229.79;1777826;80;21405;-72
2022/08/21 07:13:20;;;;;;;28.07;5.65;;;;;;;26.19;100.00;99234.95;1777743;80;21804;-73
2022/08/21 07:15:51;;;;;;;30.50;8.45;;;;;;;26.29;100.00;99227.52;1777811;80;21286;-73
2022/08/21 07:18:17;;;;;;;39.45;5.97;;;;;;;26.39;100.00;99225.11;1777651;80;20932;-73
2022/08/21 07:20:44;;;;;;;32.30;6.70;;;;;;;26.41;100.00;99225.45;1777713;80;20872;-72
2022/08/21 07:23:14;;;;;;;27.42;6.72;;;;;;;26.44;100.00;99220.97;1777748;80;20975;-74
2022/08/21 07:25:41;;;;;;;31.48;6.25;;;;;;;26.58;100.00;99219.22;1777166;80;20927;-73
2022/08/21 07:28:10;;;;;;;23.02;5.22;;;;;;;26.47;100.00;99223.72;1777799;80;20923;-72
2022/08/21 07:30:39;;;;;;;24.82;5.53;;;;;;;26.47;100.00;99220.09;1777573;80;21392;-73
2022/08/21 07:33:07;;;;;;;38.78;6.50;;;;;;;26.55;100.00;99224.34;1777725;80;20954;-73
2022/08/21 07:35:33;;;;;;;35.43;6.70;;;;;;;26.59;100.00;99218.61;1777809;80;21007;-72
2022/08/21 07:38:04;;;;;;;31.48;6.00;;;;;;;26.64;100.00;99216.69;1777866;80;21054;-70
2022/08/21 07:40:30;;;;;;;28.23;5.72;;;;;;;26.67;100.00;99218.63;1777694;80;21210;-72
2022/08/21 07:43:00;;;;;;;28.40;6.62;;;;;;;26.70;100.00;99214.92;1777782;80;20943;-74
2022/08/21 07:45:27;;;;;;;29.67;5.80;;;;;;;26.76;100.00;99218.63;1778086;80;21408;-73
2022/08/21 07:47:55;;;;;;;28.38;6.62;;;;;;;26.90;100.00;99222.55;1777741;80;21582;-72
2022/08/21 07:50:22;;;;;;;36.98;6.78;;;;;;;26.91;100.00;99219.08;1777800;80;20876;-73
2022/08/21 07:52:53;;;;;;;27.80;5.83;;;;;;;27.00;100.00;99219.28;1777817;79;20860;-75
2022/08/21 07:55:22;;;;;;;27.00;5.70;;;;;;;27.13;100.00;99211.52;1777683;80;20872;-72
2022/08/21 07:57:49;;;;;;;25.77;5.72;;;;;;;27.16;100.00;99208.59;1777875;80;20967;-72
2022/08/21 08:00:21;;;;;;;31.12;7.05;;;;;;;27.29;100.00;99205.06;1777701;80;20962;-70
2022/08/21 08:02:53;;;;;;;27.55;6.72;;;;;;;27.36;100.00;99200.64;1777716;80;20904;-74
2022/08/21 08:05:32;;;;;;;24.87;5.65;;;;;;;27.40;100.00;99195.67;1776417;80;20900;-73
2022/08/21 08:08:03;;;;;;;30.37;5.62;;;;;;;27.45;100.00;99202.20;1777468;80;20958;-72
2022/08/21 08:10:30;;;;;;;34.88;6.95;;;;;;;27.48;100.00;99195.48;1777821;80;21025;-72
2022/08/21 08:12:56;;;;;;;33.70;6.15;;;;;;;27.52;100.00;99186.30;1778217;79;20872;-73
2022/08/21 08:15:26;;;;;;;36.23;5.90;;;;;;;27.66;100.00;99186.50;1797517;79;21030;-74
2022/08/21 08:17:54;;;;;;;38.60;6.00;;;;;;;27.69;100.00;99193.52;1797455;78;21142;-74
2022/08/21 08:20:26;;;;;;;31.12;6.15;;;;;;;27.76;100.00;99193.94;1797544;79;20946;-74
2022/08/21 08:22:53;;;;;;;38.20;6.28;;;;;;;27.84;100.00;99197.38;1797630;79;20874;-77
2022/08/21 08:25:22;;;;;;;30.10;6.30;;;;;;;27.90;100.00;99199.81;1797564;79;20933;-71
2022/08/21 08:27:49;;;;;;;26.65;5.55;;;;;;;27.95;100.00;99199.27;1798027;79;20962;-71
2022/08/21 08:30:18;;;;;;;41.35;6.65;;;;;;;27.97;100.00;99194.56;1797593;79;21172;-74
2022/08/21 08:32:47;;;;;;;35.55;5.95;;;;;;;28.04;100.00;99197.81;1797564;79;21483;-72
2022/08/21 08:35:14;;;;;;;33.78;5.92;;;;;;;28.12;100.00;99190.69;1797620;79;21030;-74
2022/08/21 08:37:44;;;;;;;24.63;6.15;;;;;;;28.26;100.00;99194.34;1797667;79;21396;-73
2022/08/21 08:40:15;;;;;;;36.55;6.53;;;;;;;28.27;100.00;99184.58;1798014;79;21344;-74
2022/08/21 08:42:47;;;;;;;27.02;5.65;;;;;;;28.30;100.00;99190.14;1795935;79;21283;-77
2022/08/21 08:45:24;;;;;;;29.87;5.58;;;;;;;28.39;100.00;99190.12;1797904;79;20948;-72
2022/08/21 10:40:49;;;;;;;36.05;5.33;;;;;;;30.06;100.00;99151.72;1814632;77;22619;-72
2022/08/21 10:44:01;;;;;;;32.85;5.75;;;;;;;30.19;100.00;99153.03;1814713;79;20895;-73
2022/08/21 10:46:57;;;;;;;28.52;4.53;;;;;;;30.37;100.00;99148.89;1814692;79;21147;-72
2022/08/21 10:49:32;;;;;;;46.80;6.80;;;;;;;30.53;100.00;99147.67;1814564;79;20933;-75
2022/08/21 10:52:28;;;;;;;32.93;5.58;;;;;;;30.62;100.00;99140.62;1814472;78;20989;-79
2022/08/21 10:55:18;;;;;;;35.05;6.55;;;;;;;30.74;100.00;99142.53;1777257;79;20963;-75
2022/08/21 10:57:59;;;;;;;21.68;4.62;;;;;;;30.97;100.00;99140.41;1814254;79;20923;-75
2022/08/21 11:00:51;;;;;;;29.40;5.70;;;;;;;31.06;100.00;99135.37;1810494;79;21136;-79
2022/08/21 11:03:50;;;;;;;33.88;4.47;;;;;;;31.18;100.00;99142.80;1814826;79;21380;-75
2022/08/21 11:06:25;;;;;;;37.93;6.10;;;;;;;31.16;98.48;99141.05;1804530;79;20911;-77
2022/08/21 11:09:04;;;;;;;20.40;4.12;;;;;;;31.14;98.13;99140.10;1814507;79;20946;-78
2022/08/21 11:11:38;;;;;;;41.45;5.42;;;;;;;31.20;99.64;99134.59;1812086;79;21499;-73
2022/08/21 11:14:41;;;;;;;37.78;5.97;;;;;;;31.26;98.13;99134.10;1810202;79;20907;-75
2022/08/21 11:17:11;;;;;;;28.83;5.65;;;;;;;31.30;99.15;99128.27;1814508;79;20860;-77
2022/08/21 11:19:52;;;;;;;33.75;5.80;;;;;;;31.41;98.86;99124.95;1783896;79;21602;-75
2022/08/21 11:22:39;;;;;;;28.70;4.35;;;;;;;31.44;100.00;99129.72;1814635;79;20879;-78
2022/08/21 11:25:31;;;;;;;35.83;4.20;;;;;;;31.48;95.31;99118.18;1814481;79;20836;-76
2022/08/21 11:28:04;;;;;;;36.63;4.85;;;;;;;31.56;95.22;99121.62;1813018;77;21230;-77
2022/08/21 11:31:07;;;;;;;36.48;5.03;;;;;;;31.60;93.95;99120.66;1820209;77;20892;-79
2022/08/21 11:33:47;;;;;;;33.02;4.28;;;;;;;31.65;94.83;99120.83;1842113;77;20912;-74
2022/08/21 11:36:39;;;;;;;28.73;4.03;;;;;;;31.71;95.06;99120.98;1847910;77;20907;-77
2022/08/21 11:39:18;;;;;;;29.75;4.22;;;;;;;31.77;94.81;99118.27;1817002;77;20923;-76
2022/08/21 11:42:26;;;;;;;34.38;5.87;;;;;;;31.78;92.37;99112.09;1838361;77;20884;-77
2022/08/21 11:45:07;;;;;;;22.77;4.67;;;;;;;31.73;90.77;99110.55;1754481;80;20991;-74
2022/08/21 11:47:57;;;;;;;33.25;5.20;;;;;;;31.75;94.09;99115.91;1823968;78;20888;-78
2022/08/21 11:50:31;;;;;;;35.40;5.80;;;;;;;31.80;95.24;99110.98;1838193;77;21465;-70
2022/08/21 11:53:18;;;;;;;26.77;4.45;;;;;;;31.83;94.58;99115.72;1838600;77;20892;-73
2022/08/21 11:56:03;;;;;;;34.38;5.37;;;;;;;31.72;89.84;99108.32;1811205;78;21176;-76
2022/08/21 11:58:38;;;;;;;18.90;3.67;;;;;;;31.70;89.99;99112.27;1838583;78;21460;-71
2022/08/21 12:01:11;;;;;;;29.45;4.65;;;;;;;31.66;90.59;99108.81;1838303;78;20875;-77
2022/08/21 12:03:46;;;;;;;22.10;4.58;;;;;;;31.67;89.44;99118.30;1838149;78;20912;-78
2022/08/21 12:06:19;;;;;;;29.65;4.55;;;;;;;31.72;91.84;99108.95;1838091;77;21394;-78
2022/08/21 12:09:00;;;;;;;30.25;5.45;;;;;;;31.80;91.63;99113.83;1784075;78;21119;-75
2022/08/21 12:11:26;;;;;;;23.77;4.00;;;;;;;31.77;93.06;99113.38;1838128;78;20916;-78
2022/08/21 12:14:02;;;;;;;21.93;3.87;;;;;;;31.80;92.63;99112.41;1838294;78;20935;-78
2022/08/21 12:16:46;;;;;;;26.75;4.72;;;;;;;31.83;92.94;99110.68;1838272;78;21504;-77
2022/08/21 12:19:29;;;;;;;36.55;5.40;;;;;;;31.91;91.71;99106.23;1837103;78;20924;-78
2022/08/21 12:22:08;;;;;;;23.40;4.12;;;;;;;31.97;89.16;99098.46;1838498;78;21247;-76
2022/08/21 12:24:45;;;;;;;26.85;5.03;;;;;;;31.82;88.22;99097.07;1833379;78;20872;-73
2022/08/21 12:27:44;;;;;;;35.25;4.72;;;;;;;31.86;89.37;99096.91;1836619;78;20888;-76
2022/08/21 12:30:23;;;;;;;;;;;;;;;31.89;88.91;99095.14;1801797;78;20868;-72
2022/08/21 12:33:19;;;;;;;23.67;4.45;;;;;;;31.90;88.83;99100.36;1834281;78;20120;-76
2022/08/21 12:35:46;;;;;;;18.10;3.77;;;;;;;31.93;89.29;99110.02;1808491;78;21857;-78
2022/08/21 12:38:28;;;;;;;21.42;4.03;;;;;;;31.91;87.16;99096.26;1838221;78;20936;-76
2022/08/21 12:41:00;;;;;;;24.55;4.53;;;;;;;31.92;87.01;99094.21;1838270;78;20813;-77
2022/08/21 12:43:42;;;;;;;20.52;5.00;;;;;;;31.98;90.23;99092.94;1832576;78;20872;-79
2022/08/21 12:46:31;;;;;;;18.65;4.50;;;;;;;32.01;90.30;99094.20;1838173;78;20900;-78
2022/08/21 12:49:16;;;;;;;23.42;4.37;;;;;;;32.09;92.19;99102.41;1836571;78;21192;-72
2022/08/21 12:52:07;;;;;;;28.75;4.95;;;;;;;32.11;90.82;99098.45;1796382;78;20892;-78
2022/08/21 12:54:42;;;;;;;22.50;4.97;;;;;;;32.11;90.05;99102.72;1837129;78;20887;-77
2022/08/21 12:57:26;;;;;;;23.67;4.55;;;;;;;32.14;90.67;99102.52;1838315;77;20931;-74
2022/08/21 13:00:00;;;;;;;25.32;4.97;;;;;;;32.18;92.28;99099.50;1838338;77;21461;-76
2022/08/21 13:02:36;;;;;;;19.23;4.25;;;;;;;32.24;92.52;99109.63;1838228;78;21192;-74
2022/08/21 13:05:09;;;;;;;17.35;4.45;;;;;;;32.30;89.97;99099.94;1838143;77;21020;-77
2022/08/21 13:07:38;;;;;;;28.07;4.03;;;;;;;32.25;88.07;99099.16;1838412;78;20876;-76
2022/08/21 13:10:20;;;;;;;33.60;4.97;;;;;;;32.21;85.56;99102.04;1838019;77;20821;-73
2022/08/21 13:12:47;;;;;;;29.20;5.10;;;;;;;32.16;86.55;99107.73;1806419;78;20927;-75
2022/08/21 13:15:20;;;;;;;21.42;3.67;;;;;;;32.17;85.74;99097.31;1838281;78;21137;-73
2022/08/21 13:17:48;;;;;;;27.80;4.25;;;;;;;32.12;86.33;99100.02;1838493;77;21428;-76
2022/08/21 13:20:29;;;;;;;26.33;4.75;;;;;;;32.08;89.36;99099.38;1833449;78;20817;-77
2022/08/21 13:22:56;;;;;;;23.62;4.05;;;;;;;32.10;90.48;99104.77;1838576;78;20903;-78
2022/08/21 13:25:29;;;;;;;38.75;5.05;;;;;;;32.14;91.98;99100.33;1838259;78;20923;-73
2022/08/21 13:28:13;;;;;;;21.40;5.35;;;;;;;32.14;90.46;99098.91;1838117;77;20813;-78
2022/08/21 13:30:43;;;;;;;30.90;4.62;;;;;;;32.06;87.92;99097.81;1838055;78;21540;-79
2022/08/21 13:33:12;;;;;;;30.05;5.33;;;;;;;32.04;88.58;99098.16;1838545;77;20825;-75